Time;durP1;ratioP1;P1;durP2;ratioP2;P2;SDS_P1;SDS_P2;PMS_P1;PMS_P2;Temp;Humidity;BMP_temperature;BMP_pressure;BME280_temperature;BME280_humidity;BME280_pressure;Samples;Min_cycle;Max_cycle;Signal;HPM_P1;HPM_P2
2022/07/29 00:03:08;;;;;;;2.70;1.00;;;;;;;;;;12928120;22;20054;-86
2022/07/29 00:08:18;;;;;;;2.22;1.35;;;;;;;;;;12955652;22;20099;-89
2022/07/29 00:13:25;;;;;;;1.65;1.00;;;;;;;;;;12954566;22;20028;-88
2022/07/29 00:18:45;;;;;;;1.73;1.00;;;;;;;;;;12977162;22;20022;-88
2022/07/29 00:23:51;;;;;;;2.13;0.90;;;;;;;;;;13001906;22;20023;-90
2022/07/29 00:28:58;;;;;;;2.25;1.60;;;;;;;;;;12952788;22;20027;-91
2022/07/29 00:40:00;;;;;;;2.47;1.50;;;;;;;;;;12952835;22;20015;-89
2022/07/29 00:45:05;;;;;;;2.13;1.58;;;;;;;;;;12950285;22;20024;-89
2022/07/29 00:50:24;;;;;;;2.70;1.30;;;;;;;;;;12950922;22;20029;-90
2022/07/29 00:55:36;;;;;;;3.17;1.88;;;;;;;;;;12949974;22;20027;-88
2022/07/29 01:00:43;;;;;;;1.80;1.40;;;;;;;;;;12977142;22;20407;-88
2022/07/29 01:05:49;;;;;;;2.30;1.50;;;;;;;;;;12948751;22;20074;-87
2022/07/29 01:11:05;;;;;;;2.60;1.25;;;;;;;;;;12978447;22;20026;-88
2022/07/29 01:16:17;;;;;;;2.40;1.10;;;;;;;;;;12950253;22;20019;-88
2022/07/29 01:21:44;;;;;;;1.80;1.50;;;;;;;;;;12950179;22;20331;-88
2022/07/29 01:27:18;;;;;;;1.83;1.58;;;;;;;;;;12918776;23;20521;-87
2022/07/29 01:33:02;;;;;;;1.40;1.30;;;;;;;;;;12922256;23;20031;-86
2022/07/29 01:38:30;;;;;;;3.42;1.50;;;;;;;;;;12949133;23;20044;-86
2022/07/29 01:43:51;;;;;;;3.15;1.70;;;;;;;;;;12943748;22;20065;-87
2022/07/29 01:48:58;;;;;;;2.05;1.40;;;;;;;;;;12964304;22;20027;-86
2022/07/29 01:54:14;;;;;;;1.95;1.42;;;;;;;;;;12967568;22;20095;-87
2022/07/29 01:59:23;;;;;;;1.77;1.30;;;;;;;;;;12963387;22;20012;-87
2022/07/29 02:04:32;;;;;;;1.33;1.00;;;;;;;;;;12924647;23;20020;-87
2022/07/29 02:09:51;;;;;;;2.60;1.70;;;;;;;;;;12896582;23;20027;-88
2022/07/29 02:15:00;;;;;;;2.92;1.80;;;;;;;;;;12938132;23;20199;-87
2022/07/29 02:20:11;;;;;;;4.03;1.88;;;;;;;;;;12886790;23;20047;-87
2022/07/29 02:25:22;;;;;;;1.92;1.67;;;;;;;;;;12935484;22;20319;-89
2022/07/29 02:30:46;;;;;;;3.25;1.45;;;;;;;;;;12960590;22;20088;-88
2022/07/29 02:35:57;;;;;;;2.80;1.73;;;;;;;;;;12998325;22;20022;-87
2022/07/29 02:41:26;;;;;;;3.15;1.80;;;;;;;;;;12982414;22;20098;-91
2022/07/29 02:46:36;;;;;;;2.67;1.60;;;;;;;;;;13021567;22;20095;-90
2022/07/29 02:51:48;;;;;;;3.78;1.70;;;;;;;;;;13015409;22;20129;-88
2022/07/29 02:57:08;;;;;;;2.83;1.75;;;;;;;;;;13032250;22;20003;-90
2022/07/29 03:02:18;;;;;;;2.95;1.90;;;;;;;;;;13006104;22;20283;-87
2022/07/29 03:07:28;;;;;;;5.00;2.90;;;;;;;;;;13031493;22;20014;-86
2022/07/29 03:12:35;;;;;;;4.30;1.70;;;;;;;;;;13006205;22;20019;-87
2022/07/29 03:17:44;;;;;;;3.45;1.83;;;;;;;;;;13035436;22;20000;-87
2022/07/29 03:22:48;;;;;;;3.67;1.70;;;;;;;;;;13150391;22;20236;-87
2022/07/29 03:27:53;;;;;;;3.22;1.50;;;;;;;;;;13136954;22;20349;-87
2022/07/29 03:32:55;;;;;;;2.53;1.67;;;;;;;;;;13126071;22;20427;-88
2022/07/29 03:38:00;;;;;;;12.35;6.75;;;;;;;;;;13133098;22;20045;-87
2022/07/29 03:43:06;;;;;;;4.80;2.05;;;;;;;;;;13129441;22;20026;-87
2022/07/29 03:48:11;;;;;;;4.20;2.22;;;;;;;;;;13108074;22;20231;-89
2022/07/29 03:53:14;;;;;;;5.03;1.92;;;;;;;;;;13112249;22;20029;-90
2022/07/29 03:58:19;;;;;;;5.80;2.33;;;;;;;;;;13111130;22;20015;-90
2022/07/29 04:03:23;;;;;;;4.60;2.05;;;;;;;;;;13106734;22;20105;-86
2022/07/29 04:08:26;;;;;;;4.30;2.40;;;;;;;;;;13100130;22;20119;-87
2022/07/29 04:13:31;;;;;;;7.35;3.47;;;;;;;;;;13124642;22;20015;-88
2022/07/29 04:18:34;;;;;;;4.30;2.17;;;;;;;;;;13100390;22;20018;-87
2022/07/29 04:23:38;;;;;;;3.65;2.20;;;;;;;;;;13105810;22;20026;-88
2022/07/29 04:28:56;;;;;;;4.90;2.03;;;;;;;;;;13114336;22;20097;-86
2022/07/29 04:33:59;;;;;;;3.28;1.90;;;;;;;;;;13107426;22;20026;-86
2022/07/29 04:39:02;;;;;;;5.97;2.10;;;;;;;;;;13126625;22;20388;-87
2022/07/29 04:44:08;;;;;;;3.63;2.10;;;;;;;;;;13102456;22;20265;-87
2022/07/29 04:49:11;;;;;;;3.15;2.10;;;;;;;;;;13104340;22;20029;-87
2022/07/29 04:54:14;;;;;;;4.53;1.98;;;;;;;;;;13126798;22;20501;-87
2022/07/29 04:59:17;;;;;;;;;;;;;;;;;;13126471;22;20353;-87
2022/07/29 05:04:22;;;;;;;2.90;1.85;;;;;;;;;;13101612;22;19994;-86
2022/07/29 05:09:25;;;;;;;2.65;1.70;;;;;;;;;;13130297;22;20043;-88
2022/07/29 05:14:28;;;;;;;5.68;1.90;;;;;;;;;;13107926;22;20019;-87
2022/07/29 05:19:32;;;;;;;6.00;2.40;;;;;;;;;;13107119;22;20022;-88
2022/07/29 05:24:41;;;;;;;3.72;2.10;;;;;;;;;;13111312;22;20014;-88
2022/07/29 05:29:45;;;;;;;4.25;2.42;;;;;;;;;;13135812;22;20209;-89
2022/07/29 05:34:48;;;;;;;;;;;;;;;;;;13114310;22;20080;-88
2022/07/29 05:39:55;;;;;;;6.43;2.50;;;;;;;;;;13111418;22;19914;-90
2022/07/29 05:45:00;;;;;;;5.68;3.10;;;;;;;;;;13108676;22;20101;-90
2022/07/29 05:50:04;;;;;;;5.25;2.80;;;;;;;;;;13104090;22;20390;-88
2022/07/29 05:55:11;;;;;;;2.83;1.98;;;;;;;;;;13105372;22;20023;-89
2022/07/29 06:00:17;;;;;;;5.65;2.28;;;;;;;;;;13105993;22;20095;-89
2022/07/29 06:05:20;;;;;;;3.53;2.17;;;;;;;;;;13105279;22;20442;-89
2022/07/29 06:10:25;;;;;;;4.28;2.03;;;;;;;;;;13127672;22;20014;-88
2022/07/29 06:15:29;;;;;;;3.45;2.47;;;;;;;;;;13103974;22;20021;-89
2022/07/29 06:20:33;;;;;;;3.78;2.20;;;;;;;;;;13103653;22;20106;-88
2022/07/29 06:25:38;;;;;;;6.18;2.33;;;;;;;;;;13127274;22;20021;-88
2022/07/29 06:30:41;;;;;;;2.63;1.95;;;;;;;;;;13104965;22;20352;-89
2022/07/29 06:35:49;;;;;;;3.90;2.08;;;;;;;;;;13106872;22;20019;-88
2022/07/29 06:41:05;;;;;;;3.35;2.10;;;;;;;;;;13106069;22;20104;-88
2022/07/29 06:46:41;;;;;;;3.25;2.05;;;;;;;;;;13105074;22;20095;-88
2022/07/29 06:51:48;;;;;;;4.20;2.13;;;;;;;;;;13106748;22;20072;-88
2022/07/29 06:57:04;;;;;;;3.50;2.03;;;;;;;;;;13105171;22;20045;-88
2022/07/29 07:07:34;;;;;;;2.20;1.60;;;;;;;;;;13116448;22;20018;-89
2022/07/29 07:12:46;;;;;;;2.03;1.60;;;;;;;;;;13119049;22;20438;-89
2022/07/29 07:17:59;;;;;;;6.30;1.63;;;;;;;;;;13088124;22;20068;-87
2022/07/29 07:39:08;;;;;;;1.35;1.25;;;;;;;;;;13102567;22;20019;-87
2022/07/29 07:44:17;;;;;;;5.88;2.00;;;;;;;;;;13075959;22;20064;-88
2022/07/29 07:49:29;;;;;;;;;;;;;;;;;;13104158;22;20087;-87
2022/07/29 07:54:39;;;;;;;2.83;1.60;;;;;;;;;;13102618;22;20115;-87
2022/07/29 07:59:53;;;;;;;2.13;1.50;;;;;;;;;;13108962;22;20098;-86
2022/07/29 08:05:03;;;;;;;2.20;1.83;;;;;;;;;;13106741;22;20045;-87
2022/07/29 08:10:51;;;;;;;2.95;1.80;;;;;;;;;;13103191;22;20088;-86
2022/07/29 08:15:57;;;;;;;5.88;1.80;;;;;;;;;;13104835;22;20023;-88
2022/07/29 08:21:10;;;;;;;2.40;1.70;;;;;;;;;;13106012;22;20196;-88
2022/07/29 08:31:42;;;;;;;4.17;1.83;;;;;;;;;;13102566;22;20511;-87
2022/07/29 08:36:56;;;;;;;4.97;2.42;;;;;;;;;;13104428;22;20260;-87
2022/07/29 08:42:03;;;;;;;2.30;2.10;;;;;;;;;;13103213;22;20014;-87
2022/07/29 08:47:09;;;;;;;4.35;2.10;;;;;;;;;;13104048;22;20419;-86
2022/07/29 08:52:18;;;;;;;3.80;1.90;;;;;;;;;;13130754;22;20463;-88
2022/07/29 08:57:27;;;;;;;3.65;1.80;;;;;;;;;;13106041;22;20018;-87
2022/07/29 09:02:51;;;;;;;2.25;2.05;;;;;;;;;;13127385;22;20027;-87
2022/07/29 09:07:58;;;;;;;3.38;2.20;;;;;;;;;;13124019;22;20042;-87
2022/07/29 09:13:04;;;;;;;3.63;2.35;;;;;;;;;;13125276;22;20050;-87
2022/07/29 09:18:35;;;;;;;2.72;2.30;;;;;;;;;;13101612;22;20026;-88
2022/07/29 09:24:00;;;;;;;4.57;2.55;;;;;;;;;;13102956;22;20010;-87
2022/07/29 09:29:12;;;;;;;3.58;2.35;;;;;;;;;;13077617;22;20022;-88
2022/07/29 09:34:26;;;;;;;3.08;1.92;;;;;;;;;;13078493;22;20025;-88
2022/07/29 09:39:45;;;;;;;2.63;2.05;;;;;;;;;;13105142;22;20452;-89
2022/07/29 09:44:52;;;;;;;3.65;2.67;;;;;;;;;;13101104;22;20082;-88
2022/07/29 09:50:04;;;;;;;3.35;2.28;;;;;;;;;;13128252;22;20045;-87
2022/07/29 09:55:23;;;;;;;7.97;2.40;;;;;;;;;;13112645;22;20033;-87
2022/07/29 10:00:33;;;;;;;2.75;2.47;;;;;;;;;;13111951;22;20080;-88
2022/07/29 10:06:05;;;;;;;4.80;3.08;;;;;;;;;;13107396;22;20015;-87
2022/07/29 10:11:18;;;;;;;2.58;1.98;;;;;;;;;;13106164;22;20299;-87
2022/07/29 10:16:26;;;;;;;4.25;2.50;;;;;;;;;;13125892;22;20018;-87
2022/07/29 10:21:44;;;;;;;4.28;2.97;;;;;;;;;;13100356;22;20030;-86
2022/07/29 10:26:55;;;;;;;4.03;2.53;;;;;;;;;;13106839;22;20018;-89
2022/07/29 10:32:27;;;;;;;6.05;3.17;;;;;;;;;;13102091;22;20043;-87
2022/07/29 10:37:52;;;;;;;2.50;2.30;;;;;;;;;;13126570;22;20096;-87
2022/07/29 10:43:17;;;;;;;4.43;2.85;;;;;;;;;;13107774;22;20030;-88
2022/07/29 10:48:27;;;;;;;4.43;3.00;;;;;;;;;;13103302;22;20019;-86
2022/07/29 10:53:54;;;;;;;5.50;3.03;;;;;;;;;;13105215;22;20040;-86
2022/07/29 10:59:25;;;;;;;4.47;3.10;;;;;;;;;;13100636;22;20022;-86
2022/07/29 11:04:59;;;;;;;4.88;3.00;;;;;;;;;;13098592;22;20568;-87
2022/07/29 11:10:26;;;;;;;4.82;2.80;;;;;;;;;;13102438;22;20019;-86
2022/07/29 11:15:52;;;;;;;2.88;2.40;;;;;;;;;;13095494;22;20022;-88
2022/07/29 11:21:01;;;;;;;6.97;2.95;;;;;;;;;;13074149;22;20049;-86
2022/07/29 11:26:26;;;;;;;4.28;2.78;;;;;;;;;;13099093;22;20015;-88
2022/07/29 11:31:39;;;;;;;4.45;2.63;;;;;;;;;;13101345;22;20404;-88
2022/07/29 11:37:11;;;;;;;2.78;2.10;;;;;;;;;;13103955;22;20015;-89
2022/07/29 11:42:35;;;;;;;4.90;2.45;;;;;;;;;;13098927;22;20025;-88
2022/07/29 11:48:04;;;;;;;5.50;2.47;;;;;;;;;;13080392;22;20091;-88
2022/07/29 11:53:38;;;;;;;4.50;2.20;;;;;;;;;;13108980;22;20067;-88
2022/07/29 11:58:44;;;;;;;2.60;1.98;;;;;;;;;;13103743;22;20642;-87
2022/07/29 12:04:05;;;;;;;4.38;2.13;;;;;;;;;;13104707;22;20022;-87
2022/07/29 12:09:17;;;;;;;4.05;2.40;;;;;;;;;;13101956;22;20019;-85
2022/07/29 12:20:23;;;;;;;2.95;2.17;;;;;;;;;;13103580;22;20080;-84
2022/07/29 12:25:53;;;;;;;4.50;2.30;;;;;;;;;;13103406;22;20388;-84
2022/07/29 12:36:40;;;;;;;4.10;2.53;;;;;;;;;;13105402;22;20068;-83
2022/07/29 12:41:56;;;;;;;5.80;2.80;;;;;;;;;;13104642;22;20027;-85
2022/07/29 12:47:12;;;;;;;2.95;2.50;;;;;;;;;;13124992;22;20007;-85
2022/07/29 12:52:25;;;;;;;5.72;2.70;;;;;;;;;;13071462;22;20042;-84
2022/07/29 12:57:52;;;;;;;3.47;2.38;;;;;;;;;;13101742;22;20019;-85
2022/07/29 13:03:02;;;;;;;3.78;2.70;;;;;;;;;;13104619;22;20050;-84
2022/07/29 13:08:36;;;;;;;4.78;2.65;;;;;;;;;;13102991;22;20054;-84
2022/07/29 13:13:53;;;;;;;4.75;2.28;;;;;;;;;;13103352;22;20061;-85
2022/07/29 13:19:10;;;;;;;4.35;2.72;;;;;;;;;;13102254;22;20018;-83
2022/07/29 13:24:21;;;;;;;5.35;2.50;;;;;;;;;;13101928;22;20467;-83
2022/07/29 13:29:34;;;;;;;6.15;2.50;;;;;;;;;;13104034;22;20472;-84
2022/07/29 13:34:48;;;;;;;5.85;2.90;;;;;;;;;;13103472;22;20026;-83
2022/07/29 13:40:06;;;;;;;7.18;2.70;;;;;;;;;;13102779;22;20405;-83
2022/07/29 13:45:26;;;;;;;5.28;2.70;;;;;;;;;;13101793;22;20105;-83
2022/07/29 13:50:46;;;;;;;4.28;2.45;;;;;;;;;;13098549;22;20030;-83
2022/07/29 14:01:18;;;;;;;6.10;2.60;;;;;;;;;;13101611;22;20411;-84
2022/07/29 14:06:34;;;;;;;3.95;2.05;;;;;;;;;;13122215;22;20395;-83
2022/07/29 14:11:46;;;;;;;3.20;2.08;;;;;;;;;;13100235;22;20018;-84
2022/07/29 14:16:55;;;;;;;4.25;1.80;;;;;;;;;;13099286;22;20304;-82
2022/07/29 14:22:09;;;;;;;2.55;2.00;;;;;;;;;;13102316;22;20026;-83
2022/07/29 14:32:55;;;;;;;3.67;1.90;;;;;;;;;;13099767;22;20023;-83
2022/07/29 14:38:07;;;;;;;2.95;1.92;;;;;;;;;;13099540;22;20015;-83
2022/07/29 14:43:16;;;;;;;3.42;2.00;;;;;;;;;;13099980;22;20533;-83
2022/07/29 14:48:28;;;;;;;3.92;1.90;;;;;;;;;;13099760;22;20401;-82
2022/07/29 14:53:41;;;;;;;4.13;2.40;;;;;;;;;;13098786;22;20022;-82
2022/07/29 14:58:59;;;;;;;4.35;2.10;;;;;;;;;;13097322;22;20022;-82
2022/07/29 15:04:09;;;;;;;3.08;2.38;;;;;;;;;;13097968;22;20103;-82
2022/07/29 15:09:35;;;;;;;2.50;1.83;;;;;;;;;;13098765;22;20018;-82
2022/07/29 15:14:53;;;;;;;6.45;2.13;;;;;;;;;;13121716;22;20073;-83
2022/07/29 15:20:00;;;;;;;3.50;2.15;;;;;;;;;;13100560;22;20097;-83
2022/07/29 15:25:12;;;;;;;7.90;2.90;;;;;;;;;;13104350;22;20419;-83
2022/07/29 15:30:19;;;;;;;4.95;2.60;;;;;;;;;;13101059;22;20033;-84
2022/07/29 15:35:45;;;;;;;4.57;2.88;;;;;;;;;;13102183;22;20025;-83
2022/07/29 15:41:08;;;;;;;5.85;2.80;;;;;;;;;;13107738;22;20413;-85
2022/07/29 15:51:36;;;;;;;3.60;2.63;;;;;;;;;;13102572;22;20087;-78
2022/07/29 15:56:40;;;;;;;4.60;2.80;;;;;;;;;;13100465;22;20023;-78
2022/07/29 16:01:44;;;;;;;5.65;3.50;;;;;;;;;;13123959;22;20118;-78
2022/07/29 16:06:52;;;;;;;5.18;3.17;;;;;;;;;;13100805;22;20111;-77
2022/07/29 16:11:58;;;;;;;3.65;2.67;;;;;;;;;;13074352;22;20018;-79
2022/07/29 16:17:08;;;;;;;4.10;2.22;;;;;;;;;;13124125;22;20015;-79
2022/07/29 16:22:23;;;;;;;5.97;2.90;;;;;;;;;;13098582;22;20603;-79
2022/07/29 16:27:33;;;;;;;3.35;2.97;;;;;;;;;;13098655;22;20023;-78
2022/07/29 16:32:44;;;;;;;3.10;2.25;;;;;;;;;;13100391;22;20399;-78
2022/07/29 16:37:52;;;;;;;6.65;2.67;;;;;;;;;;13077520;22;20014;-78
2022/07/29 16:42:57;;;;;;;7.22;3.40;;;;;;;;;;13074399;22;20050;-79
2022/07/29 16:48:03;;;;;;;3.78;2.22;;;;;;;;;;13100746;22;20015;-79
2022/07/29 16:53:15;;;;;;;4.00;2.70;;;;;;;;;;13099528;22;20351;-79
2022/07/29 16:58:22;;;;;;;3.75;2.55;;;;;;;;;;13097655;22;20025;-78
2022/07/29 17:03:26;;;;;;;4.68;3.10;;;;;;;;;;13098818;22;20019;-78
2022/07/29 17:08:35;;;;;;;7.47;3.67;;;;;;;;;;13097954;22;20096;-81
2022/07/29 17:13:43;;;;;;;4.95;2.55;;;;;;;;;;13099489;22;20033;-81
2022/07/29 17:18:53;;;;;;;4.28;2.67;;;;;;;;;;13097672;22;20425;-81
2022/07/29 17:24:03;;;;;;;4.47;2.40;;;;;;;;;;13100347;22;20034;-82
2022/07/29 17:29:09;;;;;;;6.35;3.00;;;;;;;;;;13074399;22;20087;-81
2022/07/29 17:34:15;;;;;;;4.22;2.90;;;;;;;;;;13099712;22;20494;-81
2022/07/29 17:39:22;;;;;;;4.30;2.53;;;;;;;;;;13098564;22;20019;-82
2022/07/29 17:44:27;;;;;;;4.20;1.98;;;;;;;;;;13122495;22;20015;-74
2022/07/29 17:49:33;;;;;;;3.50;2.08;;;;;;;;;;13122305;22;20110;-78
2022/07/29 18:00:26;;;;;;;1.73;1.15;;;;;;;;;;13104577;22;20025;-90
2022/07/29 18:05:32;;;;;;;2.30;1.38;;;;;;;;;;13120541;22;20038;-90
2022/07/29 18:11:00;;;;;;;3.20;1.63;;;;;;;;;;13136455;22;20078;-90
2022/07/29 18:16:09;;;;;;;3.15;1.50;;;;;;;;;;13143741;22;20033;-91
2022/07/29 18:21:15;;;;;;;3.72;1.55;;;;;;;;;;13124712;22;20019;-91
2022/07/29 18:26:53;;;;;;;5.10;1.90;;;;;;;;;;13111411;22;20030;-86
2022/07/29 18:32:00;;;;;;;2.88;1.50;;;;;;;;;;13129195;22;20018;-90
2022/07/29 18:37:10;;;;;;;5.40;1.95;;;;;;;;;;13106846;22;20038;-91
2022/07/29 18:42:30;;;;;;;2.95;1.45;;;;;;;;;;13109707;22;20026;-93
2022/07/29 18:47:38;;;;;;;3.53;1.63;;;;;;;;;;13107696;22;20449;-92
2022/07/29 18:52:57;;;;;;;3.15;1.67;;;;;;;;;;13132412;22;20168;-91
2022/07/29 18:58:22;;;;;;;3.25;1.95;;;;;;;;;;13116757;22;20086;-92
2022/07/29 19:03:30;;;;;;;4.57;1.85;;;;;;;;;;13124310;22;20029;-94
2022/07/29 19:08:35;;;;;;;2.35;1.30;;;;;;;;;;13145323;22;20131;-90
2022/07/29 19:13:42;;;;;;;2.67;1.40;;;;;;;;;;13124807;22;20447;-91
2022/07/29 19:18:50;;;;;;;4.10;2.35;;;;;;;;;;13122963;22;20018;-91
2022/07/29 19:24:11;;;;;;;3.03;1.60;;;;;;;;;;13120395;22;20076;-90
2022/07/29 19:29:40;;;;;;;2.85;1.52;;;;;;;;;;13110713;22;20031;-93
2022/07/29 19:35:22;;;;;;;4.63;2.08;;;;;;;;;;13107307;22;20362;-90
2022/07/29 19:40:14;;;;;;;4.18;2.30;;;;;;;;;;13101195;22;20022;-86
2022/07/29 19:45:23;;;;;;;2.92;1.85;;;;;;;;;;13097331;22;20019;-87
2022/07/29 19:50:27;;;;;;;3.25;1.95;;;;;;;;;;13128534;22;20042;-90
2022/07/29 19:55:41;;;;;;;3.92;2.20;;;;;;;;;;13113536;22;20518;-89
2022/07/29 20:00:48;;;;;;;3.35;2.10;;;;;;;;;;13109588;22;20018;-84
2022/07/29 20:05:59;;;;;;;6.60;3.75;;;;;;;;;;13110509;22;20129;-91
2022/07/29 20:11:08;;;;;;;3.40;1.55;;;;;;;;;;13084424;22;20025;-87
2022/07/29 20:16:16;;;;;;;3.88;2.22;;;;;;;;;;13051851;22;20026;-87
2022/07/29 20:21:25;;;;;;;4.95;1.80;;;;;;;;;;13105558;22;20065;-87
2022/07/29 20:26:28;;;;;;;2.30;1.45;;;;;;;;;;13109697;22;20018;-87
2022/07/29 20:31:35;;;;;;;4.55;2.92;;;;;;;;;;13106456;22;20018;-87
2022/07/29 20:36:47;;;;;;;5.90;2.35;;;;;;;;;;13107716;22;20014;-88
2022/07/29 20:41:56;;;;;;;5.28;2.33;;;;;;;;;;13112687;22;20018;-87
2022/07/29 20:47:12;;;;;;;4.22;2.65;;;;;;;;;;13096278;22;20015;-87
2022/07/29 20:52:28;;;;;;;4.82;2.70;;;;;;;;;;13112180;22;20033;-86
2022/07/29 20:57:35;;;;;;;3.65;1.90;;;;;;;;;;13113818;22;20079;-89
2022/07/29 21:02:46;;;;;;;3.75;2.25;;;;;;;;;;13114720;22;20026;-85
2022/07/29 21:07:52;;;;;;;3.53;2.03;;;;;;;;;;13128873;22;20015;-86
2022/07/29 21:13:01;;;;;;;3.70;2.60;;;;;;;;;;13083969;22;20382;-85
2022/07/29 21:18:26;;;;;;;4.10;2.47;;;;;;;;;;13105262;22;20018;-85
2022/07/29 21:23:32;;;;;;;3.53;2.47;;;;;;;;;;13060452;22;20515;-83
2022/07/29 21:28:42;;;;;;;6.82;3.97;;;;;;;;;;13127337;22;20016;-83
2022/07/29 21:33:50;;;;;;;4.95;2.92;;;;;;;;;;13076542;22;20436;-84
2022/07/29 21:39:07;;;;;;;5.63;2.83;;;;;;;;;;13076512;22;20022;-84
2022/07/29 21:44:11;;;;;;;5.22;3.33;;;;;;;;;;13101344;22;20100;-83
2022/07/29 21:49:23;;;;;;;3.58;2.10;;;;;;;;;;13123397;22;20011;-85
2022/07/29 21:54:31;;;;;;;4.50;2.67;;;;;;;;;;13101012;22;20050;-86
2022/07/29 21:59:36;;;;;;;4.70;2.83;;;;;;;;;;13074792;22;20019;-85
2022/07/29 22:04:51;;;;;;;4.57;2.38;;;;;;;;;;13075729;22;20029;-83
2022/07/29 22:09:55;;;;;;;5.50;3.38;;;;;;;;;;13099117;22;20098;-84
2022/07/29 22:15:01;;;;;;;3.60;2.20;;;;;;;;;;13099827;22;20026;-83
2022/07/29 22:20:15;;;;;;;3.88;2.17;;;;;;;;;;13121454;22;20441;-84
2022/07/29 22:25:29;;;;;;;5.20;2.97;;;;;;;;;;13122493;22;20102;-85
2022/07/29 22:30:33;;;;;;;1.67;1.13;;;;;;;;;;13123475;22;20061;-84
2022/07/29 22:35:39;;;;;;;4.82;2.88;;;;;;;;;;13100410;22;20505;-84
2022/07/29 22:40:53;;;;;;;3.63;2.13;;;;;;;;;;13123647;22;20086;-84
2022/07/29 22:46:03;;;;;;;4.03;1.95;;;;;;;;;;13122976;22;20102;-85
2022/07/29 22:51:09;;;;;;;2.20;1.63;;;;;;;;;;13099545;22;20015;-85
2022/07/29 22:56:14;;;;;;;3.58;2.25;;;;;;;;;;13102470;22;20027;-85
2022/07/29 23:01:20;;;;;;;3.55;1.95;;;;;;;;;;13123617;22;20065;-85
2022/07/29 23:06:49;;;;;;;4.65;1.40;;;;;;;;;;13099642;22;20094;-84
2022/07/29 23:11:54;;;;;;;7.25;2.40;;;;;;;;;;13048611;22;20019;-84
2022/07/29 23:17:03;;;;;;;4.47;2.25;;;;;;;;;;13097897;22;20014;-85
2022/07/29 23:22:10;;;;;;;4.07;2.40;;;;;;;;;;13121181;22;20030;-85
2022/07/29 23:27:19;;;;;;;5.05;1.98;;;;;;;;;;13121490;22;20019;-84
2022/07/29 23:32:27;;;;;;;3.85;2.10;;;;;;;;;;13077954;22;20429;-86
2022/07/29 23:37:32;;;;;;;3.50;2.15;;;;;;;;;;13085839;22;20159;-85
2022/07/29 23:42:41;;;;;;;4.30;2.10;;;;;;;;;;13081378;22;20022;-85
2022/07/29 23:47:51;;;;;;;5.20;2.42;;;;;;;;;;13103204;22;20072;-85
2022/07/29 23:53:01;;;;;;;5.88;3.33;;;;;;;;;;13126244;22;20376;-85
2022/07/29 23:58:05;;;;;;;4.50;2.60;;;;;;;;;;13126604;22;20519;-85
